Time;durP1;ratioP1;P1;durP2;ratioP2;P2;SDS_P1;SDS_P2;PMS_P1;PMS_P2;Temp;Humidity;BMP_temperature;BMP_pressure;BME280_temperature;BME280_humidity;BME280_pressure;Samples;Min_cycle;Max_cycle;Signal;HPM_P1;HPM_P2
2022/05/22 00:04:53;;;;;;;2.10;0.90;;;;;;;16.85;42.32;98857.05;233510;1217;138875;-62
2022/05/22 00:09:57;;;;;;;1.20;0.90;;;;;;;16.79;42.49;98851.73;233577;1217;138420;-61
2022/05/22 00:15:00;;;;;;;4.00;1.20;;;;;;;16.74;42.69;98844.43;233513;1217;138829;-62
2022/05/22 00:20:04;;;;;;;2.80;1.20;;;;;;;16.69;42.87;98846.31;232076;1216;139203;-64
2022/05/22 00:25:10;;;;;;;2.60;1.30;;;;;;;16.65;43.03;98843.81;233529;1217;138634;-62
2022/05/22 00:30:14;;;;;;;5.80;1.20;;;;;;;16.64;43.13;98839.78;233610;1217;141342;-62
2022/05/22 00:35:21;;;;;;;3.50;1.30;;;;;;;16.58;43.39;98838.69;233774;1216;138957;-62
2022/05/22 00:40:24;;;;;;;6.20;1.40;;;;;;;16.56;43.50;98842.98;233710;1217;138503;-62
2022/05/22 00:45:27;;;;;;;4.30;1.40;;;;;;;16.47;43.61;98839.98;233483;1217;138619;-62
2022/05/22 00:50:34;;;;;;;3.20;1.60;;;;;;;16.46;43.62;98837.85;233082;1217;138821;-62
2022/05/22 00:55:37;;;;;;;4.90;1.80;;;;;;;16.44;43.87;98840.34;233318;1217;138479;-62
2022/05/22 01:00:41;;;;;;;4.70;1.80;;;;;;;16.46;44.09;98847.33;233306;1217;138745;-61
2022/05/22 01:05:45;;;;;;;4.50;1.80;;;;;;;16.46;44.17;98850.30;232349;1216;138461;-62
2022/05/22 01:10:53;;;;;;;6.80;2.00;;;;;;;16.47;44.36;98847.73;233046;1217;138357;-61
2022/05/22 01:15:59;;;;;;;4.60;2.10;;;;;;;16.44;44.25;98846.17;233771;1217;139206;-62
2022/05/22 01:21:02;;;;;;;5.20;2.10;;;;;;;16.44;44.57;98843.34;233617;1217;138637;-62
2022/05/22 01:26:09;;;;;;;6.90;1.70;;;;;;;16.43;44.52;98836.83;232837;1217;140847;-61
2022/05/22 01:31:14;;;;;;;5.10;1.90;;;;;;;16.41;44.63;98835.41;233643;1217;138610;-61
2022/05/22 01:36:18;;;;;;;3.00;1.50;;;;;;;16.40;44.67;98839.91;233668;1217;138203;-62
2022/05/22 01:41:27;;;;;;;3.40;1.30;;;;;;;16.40;44.64;98839.95;233591;1217;138825;-62
2022/05/22 01:46:30;;;;;;;3.90;1.80;;;;;;;16.40;44.88;98836.71;232972;1217;138237;-63
2022/05/22 01:51:42;;;;;;;4.40;1.70;;;;;;;16.44;45.04;98837.96;233689;1217;138742;-63
2022/05/22 01:56:47;;;;;;;3.80;1.60;;;;;;;16.43;45.23;98828.58;233607;1217;138474;-64
2022/05/22 02:01:51;;;;;;;3.70;1.80;;;;;;;16.44;45.29;98830.14;233712;1217;138299;-63
2022/05/22 02:12:22;;;;;;;4.40;1.50;;;;;;;16.44;45.69;98819.88;233804;1217;138998;-63
2022/05/22 02:17:26;;;;;;;6.30;1.60;;;;;;;16.45;45.73;98816.25;233738;1217;139048;-59
2022/05/22 02:22:30;;;;;;;2.60;1.50;;;;;;;16.44;45.79;98810.23;233736;1217;138663;-60
2022/05/22 02:27:33;;;;;;;4.10;1.40;;;;;;;16.41;45.88;98809.98;232244;1217;138730;-61
2022/05/22 02:32:37;;;;;;;3.70;1.40;;;;;;;16.40;45.92;98813.63;231603;1216;138359;-61
2022/05/22 02:37:48;;;;;;;6.40;1.60;;;;;;;16.35;46.03;98805.33;233771;1217;139071;-62
2022/05/22 02:43:02;;;;;;;2.60;1.60;;;;;;;16.28;46.23;98803.08;233655;1217;139547;-62
2022/05/22 02:48:06;;;;;;;4.80;1.60;;;;;;;16.21;46.12;98797.05;233521;1217;139048;-62
2022/05/22 02:53:10;;;;;;;5.70;1.60;;;;;;;16.21;46.30;98804.38;233565;1217;138681;-62
2022/05/22 02:58:31;;;;;;;7.00;1.90;;;;;;;16.17;46.43;98799.38;233845;1217;138042;-60
2022/05/22 03:03:34;;;;;;;4.00;2.10;;;;;;;16.14;46.45;98814.86;233464;1217;138164;-60
2022/05/22 03:08:39;;;;;;;6.20;2.00;;;;;;;16.10;46.70;98814.00;233540;1217;140228;-60
2022/05/22 03:13:42;;;;;;;4.90;2.30;;;;;;;16.07;46.83;98822.50;233667;1217;139053;-59
2022/05/22 03:18:45;;;;;;;5.70;2.50;;;;;;;16.02;47.00;98813.58;233494;1217;138079;-60
2022/05/22 03:23:54;;;;;;;6.50;2.70;;;;;;;15.97;46.98;98810.80;233581;1217;138407;-60
2022/05/22 03:28:57;;;;;;;5.70;2.40;;;;;;;15.92;47.14;98804.80;233579;1217;138450;-62
2022/05/22 03:34:00;;;;;;;3.80;2.30;;;;;;;15.91;47.25;98801.21;233625;1215;139261;-62
2022/05/22 03:39:04;;;;;;;6.70;2.50;;;;;;;15.87;47.51;98799.69;233627;1217;139412;-61
2022/05/22 03:44:08;;;;;;;4.70;2.60;;;;;;;15.87;47.64;98794.05;233639;1217;138604;-61
2022/05/22 03:49:16;;;;;;;5.80;2.80;;;;;;;15.87;47.75;98798.45;233750;1217;138177;-60
2022/05/22 03:54:20;;;;;;;7.30;3.40;;;;;;;15.88;47.82;98804.07;233514;1217;139001;-61
2022/05/22 03:59:26;;;;;;;6.80;3.60;;;;;;;15.87;47.87;98799.37;233464;1219;138904;-62
2022/05/22 04:04:29;;;;;;;6.80;3.50;;;;;;;15.86;48.15;98802.14;232748;1217;138854;-60
2022/05/22 04:09:34;;;;;;;6.30;3.80;;;;;;;15.77;48.32;98806.69;233654;1217;138601;-61
2022/05/22 04:14:45;;;;;;;8.40;3.90;;;;;;;15.77;48.55;98809.50;233835;1217;138340;-60
2022/05/22 04:19:48;;;;;;;10.00;3.90;;;;;;;15.77;48.68;98803.59;233630;1217;138711;-61
2022/05/22 04:30:18;;;;;;;7.50;3.70;;;;;;;15.76;48.79;98807.10;232327;1217;138503;-62
2022/05/22 04:35:25;;;;;;;9.10;3.80;;;;;;;15.72;49.03;98806.16;232746;1214;138434;-61
2022/05/22 04:40:29;;;;;;;7.50;4.40;;;;;;;15.73;49.29;98801.52;233924;1217;138774;-63
2022/05/22 04:45:33;;;;;;;7.90;4.30;;;;;;;15.80;49.53;98811.55;233714;1217;138594;-61
2022/05/22 04:50:38;;;;;;;7.70;3.80;;;;;;;15.76;49.30;98805.31;233568;1217;138971;-62
2022/05/22 04:55:51;;;;;;;9.70;3.60;;;;;;;15.74;49.40;98813.89;233666;1217;138637;-64
2022/05/22 05:00:55;;;;;;;6.90;3.10;;;;;;;15.66;49.54;98805.98;233531;1217;138469;-63
2022/05/22 05:06:01;;;;;;;8.40;3.40;;;;;;;15.72;49.62;98814.10;233619;1217;138894;-62
2022/05/22 05:11:05;;;;;;;10.00;3.50;;;;;;;15.70;49.59;98813.91;233730;1217;138654;-62
2022/05/22 05:16:15;;;;;;;7.30;3.40;;;;;;;15.64;49.73;98808.67;233667;1217;138833;-61
2022/05/22 05:21:26;;;;;;;7.20;3.10;;;;;;;15.58;49.85;98809.32;233567;1217;138553;-61
2022/05/22 05:26:32;;;;;;;8.00;3.30;;;;;;;15.62;50.04;98803.80;232913;1216;139132;-61
2022/05/22 05:31:38;;;;;;;8.10;3.10;;;;;;;15.68;50.09;98799.05;233583;1216;139152;-61
2022/05/22 05:36:44;;;;;;;6.20;3.10;;;;;;;15.76;50.12;98797.45;233589;1217;139047;-60
2022/05/22 05:42:05;;;;;;;10.30;6.10;;;;;;;15.83;50.12;98798.03;233541;1217;138959;-62
2022/05/22 05:47:11;;;;;;;10.70;3.50;;;;;;;15.90;50.09;98799.11;233729;1217;140143;-63
2022/05/22 05:52:50;;;;;;;7.00;3.20;;;;;;;15.99;49.99;98795.64;232973;1217;139234;-61
2022/05/22 05:58:13;;;;;;;37.40;25.70;;;;;;;16.09;49.82;98800.98;233615;1216;139996;-58
2022/05/22 06:03:54;;;;;;;7.60;3.30;;;;;;;16.24;50.05;98791.05;233649;1217;139502;-60
2022/05/22 06:08:58;;;;;;;9.20;3.60;;;;;;;16.42;49.67;98795.74;233680;1217;138114;-61
2022/05/22 06:14:33;;;;;;;8.80;2.90;;;;;;;16.49;49.62;98790.42;233612;1217;138618;-60
2022/05/22 06:19:56;;;;;;;7.10;4.10;;;;;;;16.58;49.00;98788.02;233428;1217;139247;-60
2022/05/22 06:25:18;;;;;;;5.90;2.40;;;;;;;16.62;48.72;98786.70;233680;1217;138535;-59
2022/05/22 06:30:47;;;;;;;43.90;31.40;;;;;;;16.67;48.18;98789.48;233353;1216;139869;-59
2022/05/22 06:36:12;;;;;;;38.80;26.40;;;;;;;16.70;48.34;98788.67;233757;1217;139259;-60
2022/05/22 06:41:34;;;;;;;7.20;2.60;;;;;;;16.74;48.06;98785.29;233681;1217;139096;-62
2022/05/22 06:46:53;;;;;;;26.20;17.40;;;;;;;16.79;47.47;98790.73;233724;1217;138988;-61
2022/05/22 06:52:18;;;;;;;8.20;2.20;;;;;;;16.83;47.49;98792.02;233856;1217;138966;-62
2022/05/22 06:57:30;;;;;;;4.60;1.70;;;;;;;16.89;47.41;98778.58;233496;1217;139075;-61
2022/05/22 07:02:53;;;;;;;7.90;1.80;;;;;;;16.95;46.98;98779.79;233552;1217;138045;-62
2022/05/22 07:08:09;;;;;;;7.10;1.50;;;;;;;16.97;46.34;98784.27;233005;1217;138893;-63
2022/05/22 07:13:41;;;;;;;6.30;2.00;;;;;;;17.04;45.74;98786.11;232629;1217;138071;-61
2022/05/22 07:19:20;;;;;;;7.20;2.20;;;;;;;17.12;45.55;98781.83;233071;1217;138982;-61
2022/05/22 07:24:30;;;;;;;26.50;17.10;;;;;;;17.12;45.37;98779.45;233741;1217;138336;-61
2022/05/22 07:29:49;;;;;;;5.10;1.60;;;;;;;17.14;45.00;98785.90;233421;1218;139036;-60
2022/05/22 07:35:03;;;;;;;8.30;3.10;;;;;;;17.11;45.00;98776.58;233483;1217;140885;-63
2022/05/22 07:40:33;;;;;;;4.20;1.60;;;;;;;17.19;44.86;98768.59;233912;1217;139272;-61
2022/05/22 07:46:02;;;;;;;3.80;1.20;;;;;;;17.26;44.43;98776.37;233775;1217;138252;-61
2022/05/22 07:51:33;;;;;;;5.20;1.30;;;;;;;17.32;44.42;98756.14;233363;1217;138398;-61
2022/05/22 07:56:55;;;;;;;5.50;1.20;;;;;;;17.45;44.26;98769.54;233449;1217;138369;-61
2022/05/22 08:02:16;;;;;;;60.90;51.50;;;;;;;17.44;44.05;98763.23;233691;1217;139081;-62
2022/05/22 08:07:22;;;;;;;4.70;1.70;;;;;;;17.53;43.85;98765.73;233587;1217;138977;-62
2022/05/22 08:12:39;;;;;;;5.40;1.20;;;;;;;17.62;43.42;98768.44;233508;1217;138750;-61
2022/05/22 08:17:47;;;;;;;4.50;1.10;;;;;;;17.60;43.15;98764.52;233469;1217;138540;-63
2022/05/22 08:22:59;;;;;;;2.10;1.10;;;;;;;17.60;42.99;98760.40;233756;1217;138291;-62
2022/05/22 08:28:34;;;;;;;6.20;1.50;;;;;;;17.68;43.23;98755.02;233764;1217;138467;-61
2022/05/22 08:33:38;;;;;;;45.80;29.10;;;;;;;17.68;42.72;98756.44;233423;1217;139154;-61
2022/05/22 08:38:44;;;;;;;6.90;2.30;;;;;;;17.75;42.56;98747.52;233353;1217;139171;-62
2022/05/22 08:43:55;;;;;;;1.90;1.00;;;;;;;17.79;42.29;98746.75;233712;1217;138491;-61
2022/05/22 08:49:06;;;;;;;3.00;1.40;;;;;;;17.87;42.17;98746.60;232381;1217;139570;-61
2022/05/22 08:54:21;;;;;;;3.90;1.30;;;;;;;17.80;42.16;98744.31;233786;1217;139531;-61
2022/05/22 08:59:31;;;;;;;50.00;38.00;;;;;;;17.77;42.14;98751.96;233633;1217;138792;-60
2022/05/22 09:04:52;;;;;;;5.80;2.60;;;;;;;17.82;41.82;98743.84;233904;1217;139051;-60
2022/05/22 09:10:09;;;;;;;5.90;1.30;;;;;;;18.02;41.79;98735.06;233617;1217;138104;-59
2022/05/22 09:15:28;;;;;;;5.40;1.40;;;;;;;18.03;41.49;98725.28;233803;1215;138999;-61
2022/05/22 09:20:45;;;;;;;3.90;1.20;;;;;;;18.02;41.33;98731.94;232250;1217;138529;-60
2022/05/22 09:26:10;;;;;;;3.20;1.00;;;;;;;18.09;41.49;98725.86;233638;1217;138950;-60
2022/05/22 09:31:19;;;;;;;2.70;1.40;;;;;;;18.19;41.10;98723.48;233712;1217;139500;-61
2022/05/22 09:36:34;;;;;;;5.00;1.50;;;;;;;18.35;41.82;98724.77;233808;1217;138557;-62
2022/05/22 09:42:35;;;;;;;7.80;1.50;;;;;;;18.53;41.68;98730.30;233604;1217;138928;-63
2022/05/22 09:48:04;;;;;;;8.10;4.60;;;;;;;18.63;40.84;98721.74;233053;1219;138793;-62
2022/05/22 09:53:46;;;;;;;4.40;1.00;;;;;;;18.71;40.27;98715.63;233467;1217;137935;-64
2022/05/22 09:59:24;;;;;;;2.30;1.00;;;;;;;18.80;39.79;98708.07;233512;1217;138083;-62
2022/05/22 10:04:27;;;;;;;3.40;0.90;;;;;;;18.80;39.55;98710.60;232452;1216;139731;-63
2022/05/22 10:09:54;;;;;;;2.50;1.20;;;;;;;18.74;39.30;98708.00;233783;1215;138857;-61
2022/05/22 10:15:34;;;;;;;18.90;15.20;;;;;;;18.67;39.04;98713.26;233476;1217;140357;-60
2022/05/22 10:21:10;;;;;;;4.50;1.30;;;;;;;18.80;39.24;98700.05;233860;1216;140536;-62
2022/05/22 10:26:13;;;;;;;;;;;;;;;18.87;38.96;98696.88;232940;1217;138671;-61
2022/05/22 10:31:21;;;;;;;2.70;1.10;;;;;;;18.89;38.83;98693.30;233507;1217;125028;-63
2022/05/22 10:36:30;;;;;;;3.00;1.20;;;;;;;18.99;38.72;98700.06;233437;1217;138545;-62
2022/05/22 10:47:27;;;;;;;5.20;1.60;;;;;;;19.04;38.16;98702.43;233674;1217;138342;-63
2022/05/22 10:52:33;;;;;;;3.40;1.00;;;;;;;18.98;38.30;98702.79;233704;1215;139106;-62
2022/05/22 10:57:37;;;;;;;4.30;1.10;;;;;;;19.05;38.31;98707.48;233578;1217;138798;-63
2022/05/22 11:02:40;;;;;;;5.70;1.20;;;;;;;19.11;38.04;98711.33;233504;1216;138391;-64
2022/05/22 11:07:47;;;;;;;3.80;1.40;;;;;;;19.12;38.01;98706.04;233538;1217;138455;-63
2022/05/22 11:13:25;;;;;;;3.20;1.30;;;;;;;19.17;38.19;98706.68;233231;1217;138843;-62
2022/05/22 11:18:32;;;;;;;4.40;1.30;;;;;;;19.27;38.31;98693.73;233541;1217;138130;-62
2022/05/22 11:23:41;;;;;;;2.40;0.80;;;;;;;19.48;37.93;98686.65;233367;1216;138277;-63
2022/05/22 11:29:24;;;;;;;5.30;1.10;;;;;;;19.47;37.49;98696.27;233606;1217;138914;-61
2022/05/22 11:35:04;;;;;;;3.70;1.00;;;;;;;19.38;37.46;98700.34;233662;1215;140208;-62
2022/05/22 11:40:25;;;;;;;8.50;4.30;;;;;;;19.26;37.36;98697.77;233783;1217;138451;-62
2022/05/22 11:45:49;;;;;;;4.30;1.10;;;;;;;19.25;37.43;98700.79;233618;1217;139095;-62
2022/05/22 11:51:14;;;;;;;7.20;1.00;;;;;;;19.38;37.46;98700.36;233682;1217;138511;-62
2022/05/22 11:56:41;;;;;;;3.30;1.20;;;;;;;19.39;37.24;98700.72;233446;1217;139144;-61
2022/05/22 12:02:19;;;;;;;4.40;1.30;;;;;;;19.35;37.20;98705.14;232872;1217;139208;-63
2022/05/22 12:07:28;;;;;;;64.60;47.80;;;;;;;19.37;37.27;98708.90;232455;1217;138904;-63
2022/05/22 12:12:43;;;;;;;6.40;1.60;;;;;;;19.37;37.15;98707.74;233544;1217;138475;-62
2022/05/22 12:17:53;;;;;;;2.90;1.00;;;;;;;19.27;36.80;98697.85;233632;1217;138353;-62
2022/05/22 12:23:07;;;;;;;2.30;1.00;;;;;;;19.38;36.93;98704.59;233431;1216;139064;-61
2022/05/22 12:28:37;;;;;;;5.60;1.20;;;;;;;19.64;36.87;98704.70;233612;1217;138612;-61
2022/05/22 12:33:40;;;;;;;21.40;11.90;;;;;;;19.64;36.57;98701.78;233415;1217;139021;-62
2022/05/22 12:39:11;;;;;;;4.40;1.30;;;;;;;19.50;36.30;98701.55;233765;1214;138601;-61
2022/05/22 12:44:14;;;;;;;4.50;1.10;;;;;;;19.40;36.45;98710.03;233661;1217;138956;-62
2022/05/22 12:49:23;;;;;;;3.10;0.90;;;;;;;19.32;36.34;98717.97;233501;1217;139123;-64
2022/05/22 12:54:29;;;;;;;4.20;1.00;;;;;;;19.27;36.56;98721.46;233583;1217;138965;-63
2022/05/22 12:59:32;;;;;;;2.20;0.90;;;;;;;19.14;36.45;98718.63;233787;1217;139162;-61
2022/05/22 13:04:50;;;;;;;4.80;1.00;;;;;;;19.02;36.69;98721.13;233010;1216;138556;-64
2022/05/22 13:09:54;;;;;;;4.80;0.80;;;;;;;18.89;36.90;98720.08;233452;1217;138840;-64
2022/05/22 13:15:07;;;;;;;2.80;0.80;;;;;;;18.88;37.79;98719.33;233547;1217;139269;-62
2022/05/22 13:20:30;;;;;;;115.30;88.70;;;;;;;18.88;37.81;98714.95;233766;1217;138829;-60
2022/05/22 13:25:43;;;;;;;629.30;474.80;;;;;;;19.00;39.37;98716.61;233556;1217;139216;-62
2022/05/22 13:30:52;;;;;;;27.70;20.80;;;;;;;19.17;39.19;98717.57;233458;1217;140127;-63
2022/05/22 13:35:58;;;;;;;4.30;1.30;;;;;;;19.30;38.92;98707.23;231464;1216;139578;-62
2022/05/22 13:41:49;;;;;;;3.50;1.20;;;;;;;19.34;38.60;98709.75;233723;1217;160868;-60
2022/05/22 13:46:57;;;;;;;4.00;0.80;;;;;;;19.26;38.49;98698.10;233548;1217;138601;-61
2022/05/22 13:57:27;;;;;;;201.40;172.00;;;;;;;19.08;38.74;98701.80;233671;1217;140735;-60
2022/05/22 14:02:42;;;;;;;97.60;82.90;;;;;;;19.03;39.33;98705.70;233923;1216;139043;-62
2022/05/22 14:07:53;;;;;;;11.50;4.20;;;;;;;19.39;41.17;98701.80;233563;1216;140264;-62
2022/05/22 14:12:58;;;;;;;2.70;0.90;;;;;;;19.57;39.84;98693.13;233523;1217;138926;-62
2022/05/22 14:18:11;;;;;;;1.60;0.60;;;;;;;19.64;39.39;98692.00;233659;1217;138747;-63
2022/05/22 14:23:23;;;;;;;5.00;0.70;;;;;;;19.70;39.09;98684.38;233785;1216;138600;-61
2022/05/22 14:28:39;;;;;;;0.90;0.40;;;;;;;19.66;38.92;98682.66;233671;1215;138559;-62
2022/05/22 14:33:44;;;;;;;3.00;0.50;;;;;;;19.57;38.44;98684.86;233606;1217;138370;-61
2022/05/22 14:38:49;;;;;;;3.10;1.20;;;;;;;19.50;38.31;98679.48;233652;1217;140266;-63
2022/05/22 14:43:55;;;;;;;;;;;;;;;19.42;38.32;98686.80;233799;1217;138454;-63
2022/05/22 14:49:04;;;;;;;2.30;0.70;;;;;;;19.32;38.57;98689.59;233463;1217;125086;-62
2022/05/22 14:54:42;;;;;;;2.50;0.70;;;;;;;19.27;38.52;98682.75;233600;1217;138747;-62
2022/05/22 14:59:57;;;;;;;2.10;0.60;;;;;;;19.25;38.63;98690.50;233607;1217;138498;-62
2022/05/22 15:05:11;;;;;;;5.90;0.90;;;;;;;19.27;38.87;98690.46;233814;1217;138367;-63
2022/05/22 15:10:37;;;;;;;3.30;0.80;;;;;;;19.30;38.80;98682.11;233571;1217;138918;-59
2022/05/22 15:16:20;;;;;;;2.30;0.60;;;;;;;19.33;38.96;98675.65;233551;1217;139799;-64
2022/05/22 15:21:25;;;;;;;1.00;0.60;;;;;;;19.28;38.81;98681.52;233687;1216;138738;-61
2022/05/22 15:26:31;;;;;;;5.40;0.60;;;;;;;19.26;38.72;98685.43;233581;1217;140137;-63
2022/05/22 15:31:34;;;;;;;;;;;;;;;19.18;38.78;98680.25;233733;1216;138384;-63
2022/05/22 15:36:43;;;;;;;2.00;0.50;;;;;;;19.14;38.64;98686.09;233281;1217;127902;-63
2022/05/22 15:41:49;;;;;;;4.40;0.80;;;;;;;19.11;38.94;98686.00;233621;1217;141161;-63
2022/05/22 15:46:56;;;;;;;25.80;23.10;;;;;;;19.05;38.82;98679.42;233695;1217;138607;-63
2022/05/22 15:52:04;;;;;;;59.40;37.80;;;;;;;19.00;38.90;98679.09;233568;1217;138825;-62
2022/05/22 15:57:08;;;;;;;5.40;1.60;;;;;;;18.97;39.01;98672.71;233576;1217;139435;-63
2022/05/22 16:02:23;;;;;;;1.10;0.60;;;;;;;18.93;38.96;98668.51;233415;1217;139058;-63
2022/05/22 16:07:28;;;;;;;2.90;0.90;;;;;;;18.92;39.00;98673.73;233318;1217;139520;-63
2022/05/22 16:12:31;;;;;;;1.50;0.60;;;;;;;18.85;39.18;98673.01;233461;1217;139151;-63
2022/05/22 16:17:35;;;;;;;2.80;0.80;;;;;;;18.82;39.22;98676.38;233410;1216;138679;-63
2022/05/22 16:22:40;;;;;;;2.30;0.90;;;;;;;18.78;39.02;98678.86;233692;1217;138989;-63
2022/05/22 16:27:44;;;;;;;4.30;0.80;;;;;;;18.73;38.85;98684.02;233604;1216;138342;-62
2022/05/22 16:32:47;;;;;;;3.10;1.20;;;;;;;18.61;38.90;98688.94;233292;1217;138567;-64
2022/05/22 16:37:51;;;;;;;3.90;0.70;;;;;;;18.54;38.88;98690.36;233426;1217;139018;-63
2022/05/22 16:42:54;;;;;;;5.00;1.20;;;;;;;18.49;38.83;98697.16;233441;1217;138332;-64
2022/05/22 16:53:22;;;;;;;1.20;0.60;;;;;;;18.38;39.21;98693.07;233625;1217;140057;-63
2022/05/22 16:58:38;;;;;;;93.10;69.30;;;;;;;18.36;39.35;98693.80;233663;1217;138486;-62
2022/05/22 17:03:46;;;;;;;5.90;2.30;;;;;;;18.35;39.36;98696.09;233588;1217;138889;-62
2022/05/22 17:08:58;;;;;;;2.50;1.00;;;;;;;18.35;39.16;98701.54;233583;1217;138979;-62
2022/05/22 17:14:13;;;;;;;3.70;1.00;;;;;;;18.36;39.19;98703.83;233419;1217;138744;-62
2022/05/22 17:19:17;;;;;;;3.20;1.10;;;;;;;18.36;39.33;98703.65;233500;1217;139224;-62
2022/05/22 17:24:26;;;;;;;3.80;0.90;;;;;;;18.36;39.29;98710.66;233603;1217;138999;-63
2022/05/22 17:29:30;;;;;;;3.10;1.00;;;;;;;18.35;39.40;98714.50;233595;1217;138487;-63
2022/05/22 17:34:37;;;;;;;5.40;2.10;;;;;;;18.32;39.31;98714.63;233576;1217;138853;-63
2022/05/22 17:39:40;;;;;;;2.70;0.90;;;;;;;18.32;39.63;98714.90;233518;1217;139076;-64
2022/05/22 17:44:44;;;;;;;3.60;1.30;;;;;;;18.28;39.51;98711.66;233563;1217;138498;-62
2022/05/22 17:49:47;;;;;;;37.10;27.90;;;;;;;18.30;39.72;98711.46;233536;1217;138801;-62
2022/05/22 17:54:51;;;;;;;51.00;36.30;;;;;;;18.28;40.24;98702.50;233568;1217;138869;-64
2022/05/22 17:59:54;;;;;;;3.80;1.60;;;;;;;18.31;40.17;98705.02;233514;1217;139788;-63
2022/05/22 18:04:57;;;;;;;1.80;1.10;;;;;;;18.30;40.31;98706.42;233931;1217;139481;-61
2022/05/22 18:10:06;;;;;;;1.00;0.90;;;;;;;18.27;40.11;98704.91;233701;1217;138701;-61
2022/05/22 18:20:35;;;;;;;3.00;1.20;;;;;;;18.23;40.22;98706.55;232901;1217;138641;-62
2022/05/22 18:25:41;;;;;;;3.40;1.50;;;;;;;18.20;40.35;98699.53;233598;1217;138650;-62
2022/05/22 18:30:59;;;;;;;3.70;2.20;;;;;;;18.17;40.61;98698.15;233555;1217;137981;-63
2022/05/22 18:36:03;;;;;;;5.40;1.50;;;;;;;18.12;40.65;98697.08;233390;1217;138677;-61
2022/05/22 18:41:09;;;;;;;4.30;1.60;;;;;;;18.06;40.59;98700.84;233505;1216;138799;-62
2022/05/22 18:46:13;;;;;;;3.60;1.60;;;;;;;17.98;40.77;98704.05;233748;1217;138517;-61
2022/05/22 18:51:17;;;;;;;76.60;57.80;;;;;;;17.94;41.12;98710.33;233542;1217;138830;-62
2022/05/22 18:56:25;;;;;;;6.50;4.10;;;;;;;18.00;42.46;98711.32;233099;1217;139254;-59
2022/05/22 19:01:29;;;;;;;5.30;2.20;;;;;;;18.02;42.02;98716.02;233504;1217;138509;-62
2022/05/22 19:06:33;;;;;;;4.20;1.80;;;;;;;17.92;41.35;98726.13;232978;1217;138753;-60
2022/05/22 19:11:37;;;;;;;50.30;42.50;;;;;;;17.83;41.75;98727.73;233597;1217;138411;-61
2022/05/22 19:16:45;;;;;;;4.80;3.70;;;;;;;17.78;41.83;98730.52;233769;1217;138754;-63
2022/05/22 19:21:49;;;;;;;3.70;1.70;;;;;;;17.76;41.96;98731.83;233730;1217;138673;-61
2022/05/22 19:26:55;;;;;;;35.30;23.10;;;;;;;17.66;41.82;98731.65;233596;1217;139179;-61
2022/05/22 19:31:59;;;;;;;6.10;3.20;;;;;;;17.63;42.22;98740.19;233597;1217;138923;-61
2022/05/22 19:37:02;;;;;;;5.10;1.90;;;;;;;17.57;42.25;98734.92;233784;1215;138745;-62
2022/05/22 19:47:34;;;;;;;3.70;2.40;;;;;;;17.44;42.58;98732.15;233403;1218;140169;-62
2022/05/22 19:52:38;;;;;;;4.00;1.50;;;;;;;17.40;42.80;98741.14;233222;1216;138556;-62
2022/05/22 20:03:08;;;;;;;2.80;1.60;;;;;;;17.30;43.05;98752.04;233783;1217;138718;-60
2022/05/22 20:08:34;;;;;;;4.50;1.60;;;;;;;17.22;43.30;98753.42;233652;1217;138709;-62
2022/05/22 20:13:39;;;;;;;4.80;2.00;;;;;;;17.15;43.71;98754.45;233596;1217;138425;-62
2022/05/22 20:18:44;;;;;;;6.30;2.50;;;;;;;17.02;44.03;98740.48;233531;1217;138788;-62
2022/05/22 20:23:48;;;;;;;2.20;0.90;;;;;;;16.90;43.81;98741.39;233478;1217;138817;-60
2022/05/22 20:28:52;;;;;;;1.30;1.00;;;;;;;16.78;44.02;98735.81;233813;1217;138979;-63
2022/05/22 20:33:55;;;;;;;1.80;0.80;;;;;;;16.69;44.27;98735.23;233612;1217;138693;-63
2022/05/22 20:39:02;;;;;;;1.80;1.10;;;;;;;16.61;44.47;98733.59;233724;1217;139047;-62
2022/05/22 20:44:20;;;;;;;3.40;1.30;;;;;;;16.55;44.62;98741.17;233580;1217;139306;-61
2022/05/22 20:49:23;;;;;;;4.30;1.60;;;;;;;16.47;44.58;98733.80;233457;1217;138590;-62
2022/05/22 20:54:27;;;;;;;2.70;1.20;;;;;;;16.40;44.91;98738.41;233545;1217;138513;-61
2022/05/22 20:59:34;;;;;;;3.60;1.20;;;;;;;16.35;45.21;98737.10;233659;1217;139507;-61
2022/05/22 21:04:40;;;;;;;2.30;1.40;;;;;;;16.32;45.39;98739.27;233865;1217;138494;-62
2022/05/22 21:09:43;;;;;;;;;;;;;;;16.29;45.89;98739.38;233492;1219;139010;-62
2022/05/22 21:14:49;;;;;;;2.60;1.30;;;;;;;16.24;46.05;98743.27;233653;1217;125517;-62
2022/05/22 21:19:58;;;;;;;2.30;1.30;;;;;;;16.13;46.22;98733.73;233623;1217;138467;-62
2022/05/22 21:30:24;;;;;;;2.70;1.40;;;;;;;15.94;46.66;98735.83;233552;1217;138563;-62
2022/05/22 21:35:27;;;;;;;7.10;3.90;;;;;;;15.84;46.98;98744.12;233523;1217;138868;-64
2022/05/22 21:40:31;;;;;;;2.60;1.50;;;;;;;15.77;47.10;98744.98;233739;1217;138777;-63
2022/05/22 21:45:34;;;;;;;3.70;1.70;;;;;;;15.73;47.26;98747.05;233713;1217;138776;-63
2022/05/22 21:50:37;;;;;;;2.90;1.40;;;;;;;15.67;47.31;98744.55;233715;1217;138790;-65
2022/05/22 21:55:45;;;;;;;2.60;1.50;;;;;;;15.61;47.25;98755.61;233511;1217;139042;-61
2022/05/22 22:00:58;;;;;;;3.20;1.40;;;;;;;15.50;47.50;98752.60;233659;1216;138163;-62
2022/05/22 22:06:01;;;;;;;3.50;1.40;;;;;;;15.43;47.63;98763.86;233752;1217;139117;-63
2022/05/22 22:11:07;;;;;;;2.80;1.50;;;;;;;15.28;47.64;98762.19;233736;1217;139503;-63
2022/05/22 22:16:10;;;;;;;3.00;1.60;;;;;;;15.16;47.80;98766.68;233713;1217;138908;-62
2022/05/22 22:21:25;;;;;;;3.70;1.70;;;;;;;15.04;48.07;98763.77;233602;1216;138757;-62
2022/05/22 22:26:28;;;;;;;1.90;1.30;;;;;;;15.01;48.25;98759.23;233523;1217;138900;-62
2022/05/22 22:31:31;;;;;;;4.10;1.60;;;;;;;14.96;48.45;98757.88;233854;1217;138475;-61
2022/05/22 22:36:34;;;;;;;3.40;1.80;;;;;;;14.93;48.67;98764.48;233621;1217;138899;-62
2022/05/22 22:41:40;;;;;;;3.10;1.50;;;;;;;14.88;48.72;98756.86;233559;1217;138790;-63
2022/05/22 22:46:44;;;;;;;3.20;1.60;;;;;;;14.87;48.81;98752.83;233783;1216;139338;-61
2022/05/22 22:51:48;;;;;;;3.70;1.70;;;;;;;14.84;48.96;98749.56;233712;1217;138985;-61
2022/05/22 23:02:12;;;;;;;3.50;1.70;;;;;;;14.75;49.26;98751.55;233234;1217;138689;-61
2022/05/22 23:07:15;;;;;;;3.10;2.00;;;;;;;14.70;49.47;98745.58;233480;1217;139464;-60
2022/05/22 23:12:21;;;;;;;3.40;2.10;;;;;;;14.63;49.68;98739.65;233894;1217;138569;-60
2022/05/22 23:17:25;;;;;;;3.70;1.70;;;;;;;14.62;49.90;98747.29;233748;1217;139051;-59
2022/05/22 23:22:29;;;;;;;3.10;1.80;;;;;;;14.62;50.09;98744.25;233516;1218;138823;-61
2022/05/22 23:27:39;;;;;;;3.10;1.90;;;;;;;14.63;50.05;98742.41;233553;1217;138657;-61
2022/05/22 23:32:43;;;;;;;3.10;2.00;;;;;;;14.56;50.17;98734.21;234015;1217;138323;-62
2022/05/22 23:37:50;;;;;;;3.10;2.00;;;;;;;14.54;50.33;98736.73;233547;1217;139481;-62
2022/05/22 23:42:53;;;;;;;3.80;2.20;;;;;;;14.50;50.39;98735.44;233490;1219;138791;-62
2022/05/22 23:47:56;;;;;;;3.40;2.10;;;;;;;14.51;50.45;98737.84;233540;1217;139068;-62
2022/05/22 23:53:01;;;;;;;3.40;2.30;;;;;;;14.48;50.46;98735.44;233645;1219;138536;-63
2022/05/22 23:58:04;;;;;;;2.90;2.10;;;;;;;14.40;50.77;98735.33;233673;1217;138709;-63
